sensor_id;sensor_type;location;lat;lon;timestamp;pressure;altitude;pressure_sealevel;temperature;humidity
13058;BME280;6595;49.578;11.012;2023-08-24T00:00:24;992.232;;;18.18;78.9
13058;BME280;6595;49.578;11.012;2023-08-24T00:02:24;992.165;;;18.15;78.9
13058;BME280;6595;49.578;11.012;2023-08-24T00:04:24;992.177;;;18.11;79.4
13058;BME280;6595;49.578;11.012;2023-08-24T00:06:24;992.180;;;18.10;79.6
13058;BME280;6595;49.578;11.012;2023-08-24T00:08:23;992.179;;;18.04;79.7
13058;BME280;6595;49.578;11.012;2023-08-24T00:10:23;992.184;;;17.97;79.9
13058;BME280;6595;49.578;11.012;2023-08-24T00:12:24;992.161;;;17.99;79.7
13058;BME280;6595;49.578;11.012;2023-08-24T00:14:24;992.147;;;17.96;79.6
13058;BME280;6595;49.578;11.012;2023-08-24T00:16:24;992.135;;;17.91;79.6
13058;BME280;6595;49.578;11.012;2023-08-24T00:18:24;992.159;;;17.87;80.0
13058;BME280;6595;49.578;11.012;2023-08-24T00:20:23;992.137;;;17.81;80.0
13058;BME280;6595;49.578;11.012;2023-08-24T00:22:23;992.103;;;17.79;80.2
13058;BME280;6595;49.578;11.012;2023-08-24T00:24:23;992.050;;;17.72;80.2
13058;BME280;6595;49.578;11.012;2023-08-24T00:26:24;992.037;;;17.66;80.7
13058;BME280;6595;49.578;11.012;2023-08-24T00:28:25;992.002;;;17.67;80.6
13058;BME280;6595;49.578;11.012;2023-08-24T00:30:23;991.989;;;17.63;80.7
13058;BME280;6595;49.578;11.012;2023-08-24T00:32:23;992.023;;;17.59;80.7
13058;BME280;6595;49.578;11.012;2023-08-24T00:34:24;991.935;;;17.53;80.8
13058;BME280;6595;49.578;11.012;2023-08-24T00:36:24;991.939;;;17.53;80.9
13058;BME280;6595;49.578;11.012;2023-08-24T00:38:23;991.873;;;17.53;81.0
13058;BME280;6595;49.578;11.012;2023-08-24T00:40:23;991.879;;;17.46;81.1
13058;BME280;6595;49.578;11.012;2023-08-24T00:42:23;991.898;;;17.45;81.3
13058;BME280;6595;49.578;11.012;2023-08-24T00:44:23;991.836;;;17.43;81.3
13058;BME280;6595;49.578;11.012;2023-08-24T00:46:26;991.834;;;17.43;81.3
13058;BME280;6595;49.578;11.012;2023-08-24T00:48:25;991.883;;;17.43;81.3
13058;BME280;6595;49.578;11.012;2023-08-24T00:50:23;991.888;;;17.43;81.2
13058;BME280;6595;49.578;11.012;2023-08-24T00:52:25;991.806;;;17.42;81.1
13058;BME280;6595;49.578;11.012;2023-08-24T00:54:24;991.853;;;17.39;81.2
13058;BME280;6595;49.578;11.012;2023-08-24T00:56:24;991.807;;;17.33;81.4
13058;BME280;6595;49.578;11.012;2023-08-24T00:58:24;991.785;;;17.30;81.7
13058;BME280;6595;49.578;11.012;2023-08-24T01:00:24;991.829;;;17.29;81.7
13058;BME280;6595;49.578;11.012;2023-08-24T01:02:23;991.731;;;17.26;81.8
13058;BME280;6595;49.578;11.012;2023-08-24T01:04:23;991.722;;;17.29;81.6
13058;BME280;6595;49.578;11.012;2023-08-24T01:06:23;991.724;;;17.25;81.7
13058;BME280;6595;49.578;11.012;2023-08-24T01:08:23;991.656;;;17.29;81.7
13058;BME280;6595;49.578;11.012;2023-08-24T01:10:24;991.655;;;17.29;81.6
13058;BME280;6595;49.578;11.012;2023-08-24T01:12:28;991.718;;;17.25;81.6
13058;BME280;6595;49.578;11.012;2023-08-24T01:14:32;991.648;;;17.23;82.0
13058;BME280;6595;49.578;11.012;2023-08-24T01:16:26;991.685;;;17.23;81.9
13058;BME280;6595;49.578;11.012;2023-08-24T01:18:25;991.685;;;17.23;81.9
13058;BME280;6595;49.578;11.012;2023-08-24T01:20:24;991.635;;;17.25;81.7
13058;BME280;6595;49.578;11.012;2023-08-24T01:22:32;991.588;;;17.30;81.6
13058;BME280;6595;49.578;11.012;2023-08-24T01:24:30;991.675;;;17.27;81.6
13058;BME280;6595;49.578;11.012;2023-08-24T01:26:24;991.635;;;17.27;81.7
13058;BME280;6595;49.578;11.012;2023-08-24T01:28:24;991.750;;;17.18;81.9
13058;BME280;6595;49.578;11.012;2023-08-24T01:30:24;991.676;;;17.18;81.9
13058;BME280;6595;49.578;11.012;2023-08-24T01:32:23;991.611;;;17.18;81.9
13058;BME280;6595;49.578;11.012;2023-08-24T01:34:24;991.648;;;17.23;81.8
13058;BME280;6595;49.578;11.012;2023-08-24T01:36:24;991.625;;;17.29;81.6
13058;BME280;6595;49.578;11.012;2023-08-24T01:38:24;991.664;;;17.26;81.6
13058;BME280;6595;49.578;11.012;2023-08-24T01:40:28;991.649;;;17.23;81.7
13058;BME280;6595;49.578;11.012;2023-08-24T01:42:26;991.716;;;17.22;81.7
13058;BME280;6595;49.578;11.012;2023-08-24T01:44:25;991.657;;;17.21;81.8
13058;BME280;6595;49.578;11.012;2023-08-24T01:46:24;991.629;;;17.15;81.9
13058;BME280;6595;49.578;11.012;2023-08-24T01:48:24;991.631;;;17.22;81.4
13058;BME280;6595;49.578;11.012;2023-08-24T01:50:23;991.602;;;17.18;81.7
13058;BME280;6595;49.578;11.012;2023-08-24T01:52:24;991.590;;;17.14;81.8
13058;BME280;6595;49.578;11.012;2023-08-24T01:54:23;991.659;;;17.05;82.2
13058;BME280;6595;49.578;11.012;2023-08-24T01:56:23;991.615;;;17.02;82.4
13058;BME280;6595;49.578;11.012;2023-08-24T01:58:24;991.551;;;16.92;82.9
13058;BME280;6595;49.578;11.012;2023-08-24T02:00:24;991.492;;;16.91;83.0
13058;BME280;6595;49.578;11.012;2023-08-24T02:02:24;991.554;;;16.88;83.4
13058;BME280;6595;49.578;11.012;2023-08-24T02:04:23;991.592;;;16.91;83.3
13058;BME280;6595;49.578;11.012;2023-08-24T02:06:23;991.552;;;16.89;83.3
13058;BME280;6595;49.578;11.012;2023-08-24T02:08:23;991.491;;;16.86;83.2
13058;BME280;6595;49.578;11.012;2023-08-24T02:10:24;991.556;;;16.82;83.3
13058;BME280;6595;49.578;11.012;2023-08-24T02:12:23;991.556;;;16.82;83.3
13058;BME280;6595;49.578;11.012;2023-08-24T02:14:23;991.533;;;16.76;83.4
13058;BME280;6595;49.578;11.012;2023-08-24T02:16:24;991.578;;;16.79;83.3
13058;BME280;6595;49.578;11.012;2023-08-24T02:18:24;991.560;;;16.82;82.5
13058;BME280;6595;49.578;11.012;2023-08-24T02:20:24;991.557;;;16.78;82.4
13058;BME280;6595;49.578;11.012;2023-08-24T02:22:24;991.571;;;16.78;82.5
13058;BME280;6595;49.578;11.012;2023-08-24T02:24:24;991.631;;;16.78;83.1
13058;BME280;6595;49.578;11.012;2023-08-24T02:26:24;991.523;;;16.79;83.4
13058;BME280;6595;49.578;11.012;2023-08-24T02:28:23;991.509;;;16.72;83.5
13058;BME280;6595;49.578;11.012;2023-08-24T02:30:23;991.514;;;16.71;83.7
13058;BME280;6595;49.578;11.012;2023-08-24T02:32:23;991.500;;;16.67;83.9
13058;BME280;6595;49.578;11.012;2023-08-24T02:34:23;991.469;;;16.65;83.9
13058;BME280;6595;49.578;11.012;2023-08-24T02:36:24;991.469;;;16.65;83.9
13058;BME280;6595;49.578;11.012;2023-08-24T02:38:23;991.593;;;16.64;83.7
13058;BME280;6595;49.578;11.012;2023-08-24T02:40:23;991.623;;;16.64;83.5
13058;BME280;6595;49.578;11.012;2023-08-24T02:42:23;991.580;;;16.60;83.7
13058;BME280;6595;49.578;11.012;2023-08-24T02:44:23;991.577;;;16.60;83.8
13058;BME280;6595;49.578;11.012;2023-08-24T02:46:24;991.551;;;16.54;83.9
13058;BME280;6595;49.578;11.012;2023-08-24T02:48:24;991.568;;;16.55;83.9
13058;BME280;6595;49.578;11.012;2023-08-24T02:50:23;991.613;;;16.58;83.9
13058;BME280;6595;49.578;11.012;2023-08-24T02:52:23;991.497;;;16.55;84.1
13058;BME280;6595;49.578;11.012;2023-08-24T02:54:23;991.556;;;16.54;84.3
13058;BME280;6595;49.578;11.012;2023-08-24T02:56:24;991.559;;;16.50;84.4
13058;BME280;6595;49.578;11.012;2023-08-24T02:58:24;991.588;;;16.50;84.5
13058;BME280;6595;49.578;11.012;2023-08-24T03:00:23;991.576;;;16.52;84.3
13058;BME280;6595;49.578;11.012;2023-08-24T03:02:23;991.576;;;16.52;84.3
13058;BME280;6595;49.578;11.012;2023-08-24T03:04:23;991.655;;;16.51;84.4
13058;BME280;6595;49.578;11.012;2023-08-24T03:06:24;991.715;;;16.55;84.3
13058;BME280;6595;49.578;11.012;2023-08-24T03:08:24;991.672;;;16.55;84.2
13058;BME280;6595;49.578;11.012;2023-08-24T03:10:24;991.653;;;16.55;84.3
13058;BME280;6595;49.578;11.012;2023-08-24T03:12:23;991.728;;;16.54;84.3
13058;BME280;6595;49.578;11.012;2023-08-24T03:14:23;991.757;;;16.51;84.4
13058;BME280;6595;49.578;11.012;2023-08-24T03:16:23;991.718;;;16.50;84.6
13058;BME280;6595;49.578;11.012;2023-08-24T03:18:24;991.774;;;16.45;84.9
13058;BME280;6595;49.578;11.012;2023-08-24T03:20:24;991.670;;;16.43;85.0
13058;BME280;6595;49.578;11.012;2023-08-24T03:22:24;991.734;;;16.47;84.9
13058;BME280;6595;49.578;11.012;2023-08-24T03:24:23;991.751;;;16.44;84.8
13058;BME280;6595;49.578;11.012;2023-08-24T03:26:23;991.710;;;16.44;84.9
13058;BME280;6595;49.578;11.012;2023-08-24T03:28:23;991.750;;;16.44;85.0
13058;BME280;6595;49.578;11.012;2023-08-24T03:30:23;991.677;;;16.38;85.1
13058;BME280;6595;49.578;11.012;2023-08-24T03:32:23;991.651;;;16.38;85.1
13058;BME280;6595;49.578;11.012;2023-08-24T03:34:23;991.646;;;16.38;85.0
13058;BME280;6595;49.578;11.012;2023-08-24T03:36:23;991.679;;;16.40;84.8
13058;BME280;6595;49.578;11.012;2023-08-24T03:38:24;991.773;;;16.40;84.7
13058;BME280;6595;49.578;11.012;2023-08-24T03:40:24;991.721;;;16.41;84.6
13058;BME280;6595;49.578;11.012;2023-08-24T03:42:24;991.722;;;16.40;84.4
13058;BME280;6595;49.578;11.012;2023-08-24T03:44:24;991.699;;;16.35;84.5
13058;BME280;6595;49.578;11.012;2023-08-24T03:46:23;991.699;;;16.35;84.5
13058;BME280;6595;49.578;11.012;2023-08-24T03:48:23;991.661;;;16.34;84.4
13058;BME280;6595;49.578;11.012;2023-08-24T03:50:24;991.629;;;16.34;84.5
13058;BME280;6595;49.578;11.012;2023-08-24T03:52:24;991.601;;;16.28;84.5
13058;BME280;6595;49.578;11.012;2023-08-24T03:54:23;991.555;;;16.23;84.9
13058;BME280;6595;49.578;11.012;2023-08-24T03:56:23;991.550;;;16.24;84.9
13058;BME280;6595;49.578;11.012;2023-08-24T03:58:23;991.479;;;16.35;83.9
13058;BME280;6595;49.578;11.012;2023-08-24T04:00:24;991.439;;;16.41;83.5
13058;BME280;6595;49.578;11.012;2023-08-24T04:02:24;991.424;;;16.45;82.9
13058;BME280;6595;49.578;11.012;2023-08-24T04:04:23;991.438;;;16.57;82.4
13058;BME280;6595;49.578;11.012;2023-08-24T04:06:23;991.342;;;16.57;82.5
13058;BME280;6595;49.578;11.012;2023-08-24T04:08:23;991.389;;;16.60;82.1
13058;BME280;6595;49.578;11.012;2023-08-24T04:10:24;991.437;;;16.61;82.0
13058;BME280;6595;49.578;11.012;2023-08-24T04:12:24;991.406;;;16.61;82.3
13058;BME280;6595;49.578;11.012;2023-08-24T04:14:24;991.459;;;16.64;82.2
13058;BME280;6595;49.578;11.012;2023-08-24T04:16:24;991.495;;;16.67;82.0
13058;BME280;6595;49.578;11.012;2023-08-24T04:18:23;991.463;;;16.68;81.8
13058;BME280;6595;49.578;11.012;2023-08-24T04:20:23;991.479;;;16.60;82.0
13058;BME280;6595;49.578;11.012;2023-08-24T04:22:23;991.514;;;16.62;81.9
13058;BME280;6595;49.578;11.012;2023-08-24T04:24:23;991.469;;;16.58;82.0
13058;BME280;6595;49.578;11.012;2023-08-24T04:26:23;991.485;;;16.44;82.5
13058;BME280;6595;49.578;11.012;2023-08-24T04:28:24;991.486;;;16.41;82.7
13058;BME280;6595;49.578;11.012;2023-08-24T04:30:23;991.503;;;16.18;83.5
13058;BME280;6595;49.578;11.012;2023-08-24T04:32:23;991.476;;;16.14;83.6
13058;BME280;6595;49.578;11.012;2023-08-24T04:34:23;991.504;;;16.13;83.7
13058;BME280;6595;49.578;11.012;2023-08-24T04:36:24;991.437;;;16.13;83.4
13058;BME280;6595;49.578;11.012;2023-08-24T04:38:24;991.437;;;16.13;83.4
13058;BME280;6595;49.578;11.012;2023-08-24T04:40:24;991.542;;;16.11;83.7
13058;BME280;6595;49.578;11.012;2023-08-24T04:42:23;991.575;;;16.08;83.8
13058;BME280;6595;49.578;11.012;2023-08-24T04:44:23;991.550;;;16.08;83.9
13058;BME280;6595;49.578;11.012;2023-08-24T04:46:23;991.574;;;16.06;84.0
13058;BME280;6595;49.578;11.012;2023-08-24T04:48:25;991.560;;;16.07;84.0
13058;BME280;6595;49.578;11.012;2023-08-24T04:50:24;991.520;;;16.03;84.3
13058;BME280;6595;49.578;11.012;2023-08-24T04:52:24;991.461;;;16.04;84.2
13058;BME280;6595;49.578;11.012;2023-08-24T04:54:23;991.516;;;15.98;84.5
13058;BME280;6595;49.578;11.012;2023-08-24T04:56:23;991.468;;;15.98;84.5
13058;BME280;6595;49.578;11.012;2023-08-24T04:58:23;991.508;;;15.97;84.6
13058;BME280;6595;49.578;11.012;2023-08-24T05:00:24;991.597;;;15.96;84.4
13058;BME280;6595;49.578;11.012;2023-08-24T05:02:24;991.478;;;15.93;84.6
13058;BME280;6595;49.578;11.012;2023-08-24T05:04:23;991.476;;;15.94;84.7
13058;BME280;6595;49.578;11.012;2023-08-24T05:06:23;991.365;;;15.94;84.7
13058;BME280;6595;49.578;11.012;2023-08-24T05:08:23;991.413;;;15.98;84.6
13058;BME280;6595;49.578;11.012;2023-08-24T05:10:24;991.428;;;16.03;84.7
13058;BME280;6595;49.578;11.012;2023-08-24T05:12:23;991.395;;;16.01;84.8
13058;BME280;6595;49.578;11.012;2023-08-24T05:14:24;991.277;;;16.10;84.3
13058;BME280;6595;49.578;11.012;2023-08-24T05:16:24;991.381;;;16.18;84.7
13058;BME280;6595;49.578;11.012;2023-08-24T05:18:23;991.349;;;16.32;83.9
13058;BME280;6595;49.578;11.012;2023-08-24T05:20:23;991.396;;;16.40;83.6
13058;BME280;6595;49.578;11.012;2023-08-24T05:22:23;991.515;;;16.35;83.6
13058;BME280;6595;49.578;11.012;2023-08-24T05:24:23;991.412;;;16.37;83.6
13058;BME280;6595;49.578;11.012;2023-08-24T05:26:24;991.419;;;16.47;83.5
13058;BME280;6595;49.578;11.012;2023-08-24T05:28:23;991.467;;;16.51;83.4
13058;BME280;6595;49.578;11.012;2023-08-24T05:30:23;991.514;;;16.58;83.1
13058;BME280;6595;49.578;11.012;2023-08-24T05:32:24;991.537;;;16.68;82.5
13058;BME280;6595;49.578;11.012;2023-08-24T05:34:23;991.495;;;16.72;82.3
13058;BME280;6595;49.578;11.012;2023-08-24T05:36:24;991.363;;;16.88;82.4
13058;BME280;6595;49.578;11.012;2023-08-24T05:38:24;991.493;;;16.91;82.4
13058;BME280;6595;49.578;11.012;2023-08-24T05:40:24;991.447;;;17.14;82.1
13058;BME280;6595;49.578;11.012;2023-08-24T05:42:24;991.419;;;17.35;81.1
13058;BME280;6595;49.578;11.012;2023-08-24T05:44:23;991.497;;;17.46;80.7
13058;BME280;6595;49.578;11.012;2023-08-24T05:46:23;991.436;;;17.54;80.4
13058;BME280;6595;49.578;11.012;2023-08-24T05:48:23;991.314;;;17.73;79.8
13058;BME280;6595;49.578;11.012;2023-08-24T05:50:24;991.428;;;17.93;78.7
13058;BME280;6595;49.578;11.012;2023-08-24T05:52:24;991.418;;;17.96;78.0
13058;BME280;6595;49.578;11.012;2023-08-24T05:54:24;991.397;;;18.03;78.3
13058;BME280;6595;49.578;11.012;2023-08-24T05:56:24;991.428;;;18.28;78.1
13058;BME280;6595;49.578;11.012;2023-08-24T05:58:23;991.456;;;18.40;77.0
13058;BME280;6595;49.578;11.012;2023-08-24T06:00:23;991.467;;;18.50;76.2
13058;BME280;6595;49.578;11.012;2023-08-24T06:02:23;991.517;;;18.61;76.0
13058;BME280;6595;49.578;11.012;2023-08-24T06:04:23;991.447;;;18.78;75.5
13058;BME280;6595;49.578;11.012;2023-08-24T06:06:23;991.461;;;18.85;75.3
13058;BME280;6595;49.578;11.012;2023-08-24T06:08:24;991.349;;;18.91;76.1
13058;BME280;6595;49.578;11.012;2023-08-24T06:10:24;991.251;;;19.02;75.8
13058;BME280;6595;49.578;11.012;2023-08-24T06:12:23;990.951;;;19.39;74.7
13058;BME280;6595;49.578;11.012;2023-08-24T06:14:23;990.603;;;19.70;73.8
13058;BME280;6595;49.578;11.012;2023-08-24T06:16:24;990.603;;;19.70;73.8
13058;BME280;6595;49.578;11.012;2023-08-24T06:18:24;990.480;;;19.83;73.4
13058;BME280;6595;49.578;11.012;2023-08-24T06:20:24;990.572;;;19.74;73.5
13058;BME280;6595;49.578;11.012;2023-08-24T06:22:24;990.659;;;19.67;73.9
13058;BME280;6595;49.578;11.012;2023-08-24T06:24:23;990.538;;;19.81;73.6
13058;BME280;6595;49.578;11.012;2023-08-24T06:26:23;990.399;;;19.76;73.7
13058;BME280;6595;49.578;11.012;2023-08-24T06:28:23;990.299;;;19.77;73.5
13058;BME280;6595;49.578;11.012;2023-08-24T06:30:23;990.395;;;19.62;74.1
13058;BME280;6595;49.578;11.012;2023-08-24T06:32:24;990.702;;;19.59;73.5
13058;BME280;6595;49.578;11.012;2023-08-24T06:34:24;991.028;;;19.39;74.1
13058;BME280;6595;49.578;11.012;2023-08-24T06:36:23;991.150;;;19.34;74.3
13058;BME280;6595;49.578;11.012;2023-08-24T06:38:23;991.166;;;19.30;74.0
13058;BME280;6595;49.578;11.012;2023-08-24T06:40:23;991.166;;;19.30;74.0
13058;BME280;6595;49.578;11.012;2023-08-24T06:42:23;990.843;;;19.42;73.3
13058;BME280;6595;49.578;11.012;2023-08-24T06:44:23;990.744;;;19.50;73.7
13058;BME280;6595;49.578;11.012;2023-08-24T06:46:24;990.744;;;19.50;73.7
13058;BME280;6595;49.578;11.012;2023-08-24T06:48:24;990.681;;;19.64;73.4
13058;BME280;6595;49.578;11.012;2023-08-24T06:50:24;990.681;;;19.64;73.4
13058;BME280;6595;49.578;11.012;2023-08-24T06:52:23;990.714;;;19.94;71.7
13058;BME280;6595;49.578;11.012;2023-08-24T06:54:24;990.765;;;20.04;71.3
13058;BME280;6595;49.578;11.012;2023-08-24T06:56:23;990.728;;;20.17;71.6
13058;BME280;6595;49.578;11.012;2023-08-24T06:58:23;990.779;;;20.31;70.7
13058;BME280;6595;49.578;11.012;2023-08-24T07:00:23;990.866;;;20.52;69.8
13058;BME280;6595;49.578;11.012;2023-08-24T07:02:23;990.858;;;20.61;69.6
13058;BME280;6595;49.578;11.012;2023-08-24T07:04:24;990.963;;;20.55;69.4
13058;BME280;6595;49.578;11.012;2023-08-24T07:06:24;990.913;;;20.91;68.9
13058;BME280;6595;49.578;11.012;2023-08-24T07:08:24;990.978;;;21.02;68.8
13058;BME280;6595;49.578;11.012;2023-08-24T07:10:24;990.978;;;21.02;68.8
13058;BME280;6595;49.578;11.012;2023-08-24T07:12:23;991.057;;;21.18;67.9
13058;BME280;6595;49.578;11.012;2023-08-24T07:14:23;991.059;;;21.18;68.1
13058;BME280;6595;49.578;11.012;2023-08-24T07:16:23;991.180;;;21.22;68.2
13058;BME280;6595;49.578;11.012;2023-08-24T07:18:24;991.272;;;21.37;67.6
13058;BME280;6595;49.578;11.012;2023-08-24T07:20:24;991.371;;;21.43;67.2
13058;BME280;6595;49.578;11.012;2023-08-24T07:22:23;991.371;;;21.43;67.2
13058;BME280;6595;49.578;11.012;2023-08-24T07:24:23;991.441;;;21.66;67.7
13058;BME280;6595;49.578;11.012;2023-08-24T07:26:23;991.549;;;21.67;67.8
13058;BME280;6595;49.578;11.012;2023-08-24T07:28:24;991.628;;;21.77;67.5
13058;BME280;6595;49.578;11.012;2023-08-24T07:30:24;991.737;;;21.83;66.8
13058;BME280;6595;49.578;11.012;2023-08-24T07:32:23;991.658;;;21.66;66.1
13058;BME280;6595;49.578;11.012;2023-08-24T07:34:23;991.635;;;21.70;66.2
13058;BME280;6595;49.578;11.012;2023-08-24T07:36:24;991.747;;;21.47;67.0
13058;BME280;6595;49.578;11.012;2023-08-24T07:38:24;991.741;;;21.54;67.4
13058;BME280;6595;49.578;11.012;2023-08-24T07:40:24;991.749;;;21.64;67.2
13058;BME280;6595;49.578;11.012;2023-08-24T07:42:23;991.694;;;21.73;67.7
13058;BME280;6595;49.578;11.012;2023-08-24T07:44:23;991.784;;;21.76;67.8
13058;BME280;6595;49.578;11.012;2023-08-24T07:46:23;991.742;;;21.60;68.2
13058;BME280;6595;49.578;11.012;2023-08-24T07:48:23;991.749;;;21.39;69.2
13058;BME280;6595;49.578;11.012;2023-08-24T07:50:23;991.710;;;21.26;69.9
13058;BME280;6595;49.578;11.012;2023-08-24T07:52:23;991.710;;;21.26;69.9
13058;BME280;6595;49.578;11.012;2023-08-24T07:54:24;991.741;;;21.47;69.5
13058;BME280;6595;49.578;11.012;2023-08-24T07:56:24;991.788;;;21.57;68.7
13058;BME280;6595;49.578;11.012;2023-08-24T07:58:24;991.850;;;21.76;67.7
13058;BME280;6595;49.578;11.012;2023-08-24T08:00:23;991.704;;;21.74;67.3
13058;BME280;6595;49.578;11.012;2023-08-24T08:02:23;991.675;;;21.68;67.3
13058;BME280;6595;49.578;11.012;2023-08-24T08:04:24;991.716;;;22.00;66.8
13058;BME280;6595;49.578;11.012;2023-08-24T08:06:24;991.635;;;22.12;66.8
13058;BME280;6595;49.578;11.012;2023-08-24T08:08:23;991.628;;;22.18;66.6
13058;BME280;6595;49.578;11.012;2023-08-24T08:10:23;991.701;;;22.25;66.9
13058;BME280;6595;49.578;11.012;2023-08-24T08:12:23;991.656;;;22.40;66.7
13058;BME280;6595;49.578;11.012;2023-08-24T08:14:25;991.715;;;22.42;66.0
13058;BME280;6595;49.578;11.012;2023-08-24T08:16:24;991.654;;;22.41;65.9
13058;BME280;6595;49.578;11.012;2023-08-24T08:18:24;991.593;;;22.58;65.7
13058;BME280;6595;49.578;11.012;2023-08-24T08:20:24;991.487;;;22.59;65.6
13058;BME280;6595;49.578;11.012;2023-08-24T08:22:24;991.533;;;22.62;65.9
13058;BME280;6595;49.578;11.012;2023-08-24T08:24:24;991.616;;;22.88;65.2
13058;BME280;6595;49.578;11.012;2023-08-24T08:26:23;991.489;;;23.06;64.2
13058;BME280;6595;49.578;11.012;2023-08-24T08:28:23;991.505;;;23.19;64.2
13058;BME280;6595;49.578;11.012;2023-08-24T08:30:23;991.412;;;23.23;63.7
13058;BME280;6595;49.578;11.012;2023-08-24T08:32:23;991.364;;;23.33;63.1
13058;BME280;6595;49.578;11.012;2023-08-24T08:34:24;991.381;;;23.47;63.1
13058;BME280;6595;49.578;11.012;2023-08-24T08:36:23;991.433;;;23.42;62.2
13058;BME280;6595;49.578;11.012;2023-08-24T08:38:23;991.317;;;23.52;62.4
13058;BME280;6595;49.578;11.012;2023-08-24T08:40:24;991.327;;;23.69;63.1
13058;BME280;6595;49.578;11.012;2023-08-24T08:42:23;991.438;;;23.73;62.3
13058;BME280;6595;49.578;11.012;2023-08-24T08:44:25;991.435;;;23.74;62.1
13058;BME280;6595;49.578;11.012;2023-08-24T08:46:24;991.468;;;23.96;62.1
13058;BME280;6595;49.578;11.012;2023-08-24T08:48:24;991.564;;;24.00;62.8
13058;BME280;6595;49.578;11.012;2023-08-24T08:50:24;991.515;;;24.07;62.6
13058;BME280;6595;49.578;11.012;2023-08-24T08:52:23;991.452;;;24.10;61.2
13058;BME280;6595;49.578;11.012;2023-08-24T08:54:23;991.344;;;24.21;60.9
13058;BME280;6595;49.578;11.012;2023-08-24T08:56:23;991.371;;;24.24;60.5
13058;BME280;6595;49.578;11.012;2023-08-24T08:58:24;991.326;;;24.45;61.5
13058;BME280;6595;49.578;11.012;2023-08-24T09:00:24;991.279;;;24.62;61.8
13058;BME280;6595;49.578;11.012;2023-08-24T09:02:23;991.232;;;24.74;61.4
13058;BME280;6595;49.578;11.012;2023-08-24T09:04:24;991.202;;;24.93;59.9
13058;BME280;6595;49.578;11.012;2023-08-24T09:06:23;991.188;;;25.15;58.4
13058;BME280;6595;49.578;11.012;2023-08-24T09:08:24;991.277;;;25.44;57.5
13058;BME280;6595;49.578;11.012;2023-08-24T09:10:24;991.135;;;25.62;58.7
13058;BME280;6595;49.578;11.012;2023-08-24T09:12:23;991.086;;;25.66;57.8
13058;BME280;6595;49.578;11.012;2023-08-24T09:14:24;991.013;;;25.63;57.9
13058;BME280;6595;49.578;11.012;2023-08-24T09:16:29;990.796;;;25.57;56.6
13058;BME280;6595;49.578;11.012;2023-08-24T09:18:34;990.549;;;25.57;56.2
13058;BME280;6595;49.578;11.012;2023-08-24T09:20:27;990.520;;;25.66;56.7
13058;BME280;6595;49.578;11.012;2023-08-24T09:22:23;990.593;;;25.64;56.5
13058;BME280;6595;49.578;11.012;2023-08-24T09:24:29;990.702;;;25.73;57.3
13058;BME280;6595;49.578;11.012;2023-08-24T09:26:33;990.819;;;25.64;57.5
13058;BME280;6595;49.578;11.012;2023-08-24T09:28:23;990.822;;;25.62;57.5
13058;BME280;6595;49.578;11.012;2023-08-24T09:30:29;990.869;;;25.59;57.4
13058;BME280;6595;49.578;11.012;2023-08-24T09:32:27;990.943;;;25.54;57.9
13058;BME280;6595;49.578;11.012;2023-08-24T09:34:24;990.956;;;25.44;57.7
13058;BME280;6595;49.578;11.012;2023-08-24T09:36:23;990.948;;;25.47;57.6
13058;BME280;6595;49.578;11.012;2023-08-24T09:38:24;991.052;;;25.53;58.4
13058;BME280;6595;49.578;11.012;2023-08-24T09:40:24;990.995;;;25.57;57.3
13058;BME280;6595;49.578;11.012;2023-08-24T09:42:24;990.917;;;25.67;57.6
13058;BME280;6595;49.578;11.012;2023-08-24T09:44:23;990.872;;;25.88;57.1
13058;BME280;6595;49.578;11.012;2023-08-24T09:46:24;990.902;;;25.88;55.9
13058;BME280;6595;49.578;11.012;2023-08-24T09:48:24;990.828;;;25.97;56.2
13058;BME280;6595;49.578;11.012;2023-08-24T09:50:24;990.752;;;26.07;55.4
13058;BME280;6595;49.578;11.012;2023-08-24T09:52:25;990.779;;;26.16;55.2
13058;BME280;6595;49.578;11.012;2023-08-24T09:54:26;990.799;;;26.23;55.4
13058;BME280;6595;49.578;11.012;2023-08-24T09:56:25;990.894;;;26.28;54.3
13058;BME280;6595;49.578;11.012;2023-08-24T09:58:24;990.966;;;26.44;54.4
13058;BME280;6595;49.578;11.012;2023-08-24T10:00:25;990.840;;;26.63;52.7
13058;BME280;6595;49.578;11.012;2023-08-24T10:02:25;990.865;;;26.79;51.1
13058;BME280;6595;49.578;11.012;2023-08-24T10:04:24;990.812;;;26.88;50.1
13058;BME280;6595;49.578;11.012;2023-08-24T10:06:27;990.786;;;26.91;49.6
13058;BME280;6595;49.578;11.012;2023-08-24T10:08:27;990.817;;;27.13;49.4
13058;BME280;6595;49.578;11.012;2023-08-24T10:10:25;990.685;;;27.15;48.9
13058;BME280;6595;49.578;11.012;2023-08-24T10:12:27;990.563;;;27.23;48.7
13058;BME280;6595;49.578;11.012;2023-08-24T10:14:27;990.508;;;27.28;49.2
13058;BME280;6595;49.578;11.012;2023-08-24T10:16:24;990.488;;;27.47;49.5
13058;BME280;6595;49.578;11.012;2023-08-24T10:18:23;990.529;;;27.54;48.8
13058;BME280;6595;49.578;11.012;2023-08-24T10:20:24;990.507;;;27.64;49.6
13058;BME280;6595;49.578;11.012;2023-08-24T10:22:24;990.467;;;27.63;48.2
13058;BME280;6595;49.578;11.012;2023-08-24T10:24:23;990.385;;;27.71;45.8
13058;BME280;6595;49.578;11.012;2023-08-24T10:26:24;990.383;;;27.80;45.5
13058;BME280;6595;49.578;11.012;2023-08-24T10:28:24;990.381;;;27.99;45.1
13058;BME280;6595;49.578;11.012;2023-08-24T10:30:24;990.325;;;28.07;45.6
13058;BME280;6595;49.578;11.012;2023-08-24T10:32:25;990.351;;;28.15;45.6
13058;BME280;6595;49.578;11.012;2023-08-24T10:34:24;990.366;;;28.20;45.5
13058;BME280;6595;49.578;11.012;2023-08-24T10:36:24;990.327;;;28.27;45.3
13058;BME280;6595;49.578;11.012;2023-08-24T10:38:25;990.338;;;28.31;45.8
13058;BME280;6595;49.578;11.012;2023-08-24T10:40:32;990.276;;;28.41;44.9
13058;BME280;6595;49.578;11.012;2023-08-24T10:42:23;990.281;;;28.45;44.5
13058;BME280;6595;49.578;11.012;2023-08-24T10:44:25;990.346;;;28.56;44.7
13058;BME280;6595;49.578;11.012;2023-08-24T10:46:24;990.259;;;28.81;44.9
13058;BME280;6595;49.578;11.012;2023-08-24T10:48:23;990.337;;;28.92;44.9
13058;BME280;6595;49.578;11.012;2023-08-24T10:50:23;990.337;;;28.92;44.9
13058;BME280;6595;49.578;11.012;2023-08-24T10:52:24;990.297;;;29.12;44.6